Pagrindinis puslapis
METAR-TAF:

METAR-TAF

Oro uostai :

Dalianas, Kinija

platuma: 38-54N, ilguma: 121-38E, Aukštis: 97 m

Dabartinis oras

Ataskaita buvo paskelbta 33 minutes, ne 12:30 UTC
Vėjas 10 kt iš Pietų, svyruoja nuo Pietryčių ir Pietų/Pietvakarių
Temperatūra 12°C
Drėgmė 71%
Slėgis 1027 hPa
Matomumas 10 km arba daugiau
nėra debesų žemiau 1500 m ir nėra kamuolinių lietaus debesų

METAR: ZYTL 211230Z 18005MPS 130V200 CAVOK 12/07 Q1027 NOSIG

Laikas: 21:03 (13:03 UTC)

Prognozė

Ataskaita buvo paskelbta 3 valandos ir 49 minutes, ne 09:14 UTC
Prognozė galioja nuo 21 metu 12 UTC su 22 metu 12 UTC
Vėjas 8 kt iš Pietų/Pietryčių
Matomumas: 5000 m
Su prošvaistėmis ne aukštis 3300 ft
rūkana

TAF: ZYTL 210914Z 2112/2212 16004MPS 5000 BR BKN033 TX13/2206Z TN04/2121Z

Orai ataskaitas ir orų prognozės (METAR, TAF).

turimą stotys yra geltonos ir raudonos taškus žemėlapyje.

Perkelti pele per norėdami pamatyti stoties vardą.

Tada spustelėkite, norėdami matyti oro stebėjimo ir prognozės.

Norėdami pakeisti žemėlapį: spustelėkite ant žalios mygtukų su juodo kryžiaus žemyn,; žalią mygtuką su brūkšneliu, jei norite nutolinti; arba žalių rodyklių gretimoms žemėlapius.


METAR-TAF: